Terminal Aerodrome Forecast
Issued by NWS

Home | Current Version | Previous Version | Graphics & Text | Print | Product List | Glossary On
Versions: 1 2 3 4 5 6 7 8 9 10 11 12 13 14 15 16
000
FTUS43 KBIS 300712 AAA
TAFJMS
TAF AMD
KJMS 300712Z 3007/0106 05006KT P6SM VCSH SCT080
      TEMPO 3007/3008 -SHRA OVC060
     FM301500 13007KT P6SM SCT080 BKN150
     FM301900 15008KT P6SM VCSH BKN050 OVC100
     FM010300 19004KT P6SM BKN050 OVC070=

USA.gov is the U.S. government's official web portal to all federal, state and local government web resources and services.